Time;durP1;ratioP1;P1;durP2;ratioP2;P2;SDS_P1;SDS_P2;PMS_P1;PMS_P2;Temp;Humidity;BMP_temperature;BMP_pressure;BME280_temperature;BME280_humidity;BME280_pressure;Samples;Min_cycle;Max_cycle;Signal;HPM_P1;HPM_P2
2023/01/24 00:00:42;;;;;;;12.00;5.80;;;3.00;99.90;;;;;;4753504;30;20044;-74
2023/01/24 00:03:12;;;;;;;11.07;6.55;;;3.00;99.90;;;;;;4752317;30;20036;-74
2023/01/24 00:05:42;;;;;;;9.95;5.70;;;3.00;99.90;;;;;;4752326;30;20540;-74
2023/01/24 00:08:10;;;;;;;10.60;6.50;;;3.00;99.90;;;;;;4752253;30;20060;-74
2023/01/24 00:10:36;;;;;;;11.35;6.38;;;3.00;99.90;;;;;;4751976;30;20059;-74
2023/01/24 00:13:05;;;;;;;12.10;6.75;;;3.00;99.90;;;;;;4753387;30;20048;-74
2023/01/24 00:15:31;;;;;;;11.07;6.55;;;3.00;99.90;;;;;;4751624;30;20056;-74
2023/01/24 00:17:57;;;;;;;11.98;6.50;;;3.00;99.90;;;;;;4751854;30;20105;-74
2023/01/24 00:20:32;;;;;;;11.65;5.93;;;3.00;99.90;;;;;;4752171;30;20056;-74
2023/01/24 00:22:57;;;;;;;13.73;7.18;;;3.00;99.90;;;;;;4751900;30;20084;-74
2023/01/24 00:25:23;;;;;;;17.60;7.85;;;3.00;99.90;;;;;;4751957;30;20044;-74
2023/01/24 00:27:49;;;;;;;12.50;7.38;;;3.00;99.90;;;;;;4751657;30;20056;-74
2023/01/24 00:30:15;;;;;;;13.30;7.55;;;3.00;99.90;;;;;;4751702;30;20099;-74
2023/01/24 00:32:41;;;;;;;11.65;6.47;;;3.00;99.90;;;;;;4751498;30;20080;-74
2023/01/24 00:35:07;;;;;;;13.45;7.55;;;3.00;99.90;;;;;;4751721;30;20090;-74
2023/01/24 00:37:33;;;;;;;12.73;7.53;;;3.00;99.90;;;;;;4752057;30;20099;-74
2023/01/24 00:39:58;;;;;;;12.25;6.68;;;3.00;99.90;;;;;;4751835;30;20059;-74
2023/01/24 00:42:24;;;;;;;12.57;7.53;;;3.10;99.90;;;;;;4751988;30;20056;-74
2023/01/24 00:44:49;;;;;;;11.45;7.30;;;3.10;99.90;;;;;;4752975;30;20091;-74
2023/01/24 00:47:15;;;;;;;13.57;7.95;;;3.10;99.90;;;;;;4751582;30;20050;-74
2023/01/24 00:49:41;;;;;;;12.30;7.65;;;3.10;99.90;;;;;;4751560;30;20052;-74
2023/01/24 00:52:06;;;;;;;13.20;7.88;;;3.10;99.90;;;;;;4751881;30;20056;-74
2023/01/24 00:54:32;;;;;;;12.15;7.07;;;3.10;99.90;;;;;;4752792;30;20072;-74
2023/01/24 00:56:58;;;;;;;12.40;7.53;;;3.10;99.90;;;;;;4751543;30;20063;-74
2023/01/24 00:59:23;;;;;;;13.13;7.68;;;3.10;99.90;;;;;;4751656;30;20085;-74
2023/01/24 01:01:49;;;;;;;13.25;8.10;;;3.10;99.90;;;;;;4752808;30;20481;-74
2023/01/24 01:04:14;;;;;;;15.43;8.48;;;3.10;99.90;;;;;;4751736;30;20406;-74
2023/01/24 01:06:40;;;;;;;16.02;8.40;;;3.10;99.90;;;;;;4751583;30;20086;-74
2023/01/24 01:09:06;;;;;;;14.32;8.40;;;3.10;99.90;;;;;;4751461;30;20078;-74
2023/01/24 01:11:31;;;;;;;13.68;7.43;;;3.10;99.90;;;;;;4751462;30;20077;-74
2023/01/24 01:13:57;;;;;;;15.23;8.55;;;3.10;99.90;;;;;;4751570;30;20054;-74
2023/01/24 01:16:24;;;;;;;15.63;8.40;;;3.10;99.90;;;;;;4752628;30;20056;-74
2023/01/24 01:18:53;;;;;;;16.95;8.73;;;3.10;99.90;;;;;;4751379;30;20412;-74
2023/01/24 01:21:20;;;;;;;16.48;8.23;;;3.10;99.90;;;;;;4751378;30;20048;-74
2023/01/24 01:23:49;;;;;;;16.27;8.23;;;3.10;99.90;;;;;;4751634;30;20581;-74
2023/01/24 01:26:20;;;;;;;18.58;10.30;;;3.10;99.90;;;;;;4753590;30;20086;-74
2023/01/24 01:28:46;;;;;;;15.18;9.48;;;3.10;99.90;;;;;;4754981;30;20154;-74
2023/01/24 01:31:12;;;;;;;18.52;8.98;;;3.10;99.90;;;;;;4754668;30;20448;-74
2023/01/24 01:33:41;;;;;;;16.38;8.82;;;3.10;99.90;;;;;;4754674;30;20052;-74
2023/01/24 01:36:07;;;;;;;18.00;9.50;;;3.10;99.90;;;;;;4754798;30;20386;-74
2023/01/24 01:38:33;;;;;;;17.90;9.70;;;3.10;99.90;;;;;;4754659;30;20543;-74
2023/01/24 01:40:58;;;;;;;18.77;10.10;;;3.10;99.90;;;;;;4754402;30;20040;-74
2023/01/24 01:43:27;;;;;;;20.27;10.50;;;3.10;99.90;;;;;;4754731;30;20122;-74
2023/01/24 01:45:54;;;;;;;22.25;11.52;;;3.10;99.90;;;;;;4754718;30;20113;-74
2023/01/24 01:48:43;;;;;;;17.90;9.60;;;3.10;99.90;;;;;;4755575;30;20056;-74
2023/01/24 01:51:37;;;;;;;21.00;9.85;;;3.10;99.90;;;;;;4754650;30;20067;-74
2023/01/24 01:54:23;;;;;;;20.05;10.98;;;3.10;99.90;;;;;;4754378;30;20048;-74
2023/01/24 01:57:06;;;;;;;20.60;11.13;;;3.10;99.90;;;;;;4753890;30;20060;-74
2023/01/24 01:59:36;;;;;;;19.05;10.13;;;3.10;99.90;;;;;;4754563;30;20048;-74
2023/01/24 02:02:04;;;;;;;19.75;9.57;;;3.10;99.90;;;;;;4754193;30;20060;-74
2023/01/24 02:04:36;;;;;;;15.35;8.65;;;3.10;99.90;;;;;;4754135;30;20052;-74
2023/01/24 02:07:10;;;;;;;14.07;8.40;;;3.10;99.90;;;;;;4754411;30;20131;-74
2023/01/24 02:09:45;;;;;;;11.77;6.90;;;3.10;99.90;;;;;;4754145;30;20079;-74
2023/01/24 02:12:16;;;;;;;13.68;7.55;;;3.10;99.90;;;;;;4754203;30;20394;-74
2023/01/24 02:17:31;;;;;;;16.02;8.00;;;3.20;99.90;;;;;;4753945;30;20186;-74
2023/01/24 02:20:02;;;;;;;16.38;8.25;;;3.20;99.90;;;;;;4754105;30;20063;-74
2023/01/24 02:22:37;;;;;;;15.48;7.85;;;3.10;99.90;;;;;;4754170;30;20409;-74
2023/01/24 02:25:41;;;;;;;15.05;8.00;;;3.20;99.90;;;;;;4753797;30;20109;-74
2023/01/24 02:28:07;;;;;;;;;;;3.20;99.90;;;;;;4754055;30;20056;-74
2023/01/24 02:30:35;;;;;;;18.02;9.05;;;3.20;99.90;;;;;;4754008;30;20333;-74
2023/01/24 02:33:09;;;;;;;20.23;10.68;;;3.20;99.90;;;;;;4753965;30;20071;-75
2023/01/24 02:35:35;;;;;;;19.55;10.40;;;3.20;99.90;;;;;;4753623;30;20048;-74
2023/01/24 02:38:05;;;;;;;20.00;10.70;;;3.20;99.90;;;;;;4752936;30;20078;-74
2023/01/24 02:40:32;;;;;;;18.77;9.93;;;3.10;99.90;;;;;;4753651;30;20113;-74
2023/01/24 02:43:01;;;;;;;19.23;10.05;;;3.20;99.90;;;;;;4753626;30;20092;-74
2023/01/24 02:45:31;;;;;;;17.48;9.52;;;3.10;99.90;;;;;;4753779;30;20555;-74
2023/01/24 02:47:57;;;;;;;17.27;8.55;;;3.10;99.90;;;;;;4753506;30;20056;-74
2023/01/24 02:50:26;;;;;;;17.63;9.05;;;3.20;99.90;;;;;;4753393;30;20110;-74
2023/01/24 02:58:21;;;;;;;20.10;9.77;;;3.10;99.90;;;;;;4753184;30;20131;-74
2023/01/24 03:00:46;;;;;;;21.13;9.90;;;3.10;99.90;;;;;;4753439;30;20142;-74
2023/01/24 03:03:12;;;;;;;20.30;10.32;;;3.10;99.90;;;;;;4753177;30;20056;-74
2023/01/24 03:05:56;;;;;;;18.67;10.10;;;3.10;99.90;;;;;;4753369;30;20087;-74
2023/01/24 03:08:24;;;;;;;21.30;10.10;;;3.10;99.90;;;;;;4753231;30;20051;-74
2023/01/24 03:10:50;;;;;;;18.38;9.70;;;3.10;99.90;;;;;;4753311;30;20177;-74
2023/01/24 03:35:16;;;;;;;16.15;7.60;;;3.10;99.90;;;;;;4737937;30;20505;-74
2023/01/24 03:40:26;;;;;;;15.20;8.60;;;3.10;99.90;;;;;;4737781;30;20458;-74
2023/01/24 03:42:51;;;;;;;16.58;8.00;;;3.10;99.90;;;;;;4737819;30;20087;-74
2023/01/24 03:45:18;;;;;;;18.73;9.00;;;3.10;99.90;;;;;;4737748;30;20059;-74
2023/01/24 03:47:56;;;;;;;17.77;8.65;;;3.10;99.90;;;;;;4737941;30;20139;-74
2023/01/24 03:53:16;;;;;;;17.23;9.18;;;3.10;99.90;;;;;;4737660;30;20056;-74
2023/01/24 03:55:42;;;;;;;16.75;8.90;;;3.10;99.90;;;;;;4737635;30;20052;-74
2023/01/24 03:58:13;;;;;;;17.58;8.85;;;3.10;99.90;;;;;;4737604;30;20056;-74
2023/01/24 04:01:00;;;;;;;17.10;9.30;;;3.10;99.90;;;;;;4753360;30;20063;-74
2023/01/24 04:03:29;;;;;;;18.08;9.75;;;3.10;99.90;;;;;;4737741;30;20126;-74
2023/01/24 04:05:54;;;;;;;18.83;9.50;;;3.10;99.90;;;;;;4737514;30;20083;-74
2023/01/24 04:08:23;;;;;;;17.13;9.38;;;3.10;99.90;;;;;;4737531;30;20056;-74
2023/01/24 04:10:48;;;;;;;20.00;11.43;;;3.10;99.90;;;;;;4737436;30;20052;-74
2023/01/24 04:13:14;;;;;;;19.73;10.23;;;3.10;99.90;;;;;;4737514;30;20058;-74
2023/01/24 04:15:40;;;;;;;19.80;10.88;;;3.10;99.90;;;;;;4737504;30;20389;-74
2023/01/24 04:18:07;;;;;;;21.02;10.40;;;3.10;99.90;;;;;;4737497;30;20056;-74
2023/01/24 04:20:36;;;;;;;13.95;7.32;;;3.10;99.90;;;;;;4737276;30;20048;-74
2023/01/24 04:23:07;;;;;;;14.93;7.60;;;3.10;99.90;;;;;;4737600;30;20102;-74
2023/01/24 04:25:33;;;;;;;16.23;7.78;;;3.00;99.90;;;;;;4737325;30;20088;-74
2023/01/24 04:27:59;;;;;;;13.30;7.22;;;3.10;99.90;;;;;;4746308;30;20083;-74
2023/01/24 04:30:25;;;;;;;11.05;6.43;;;3.10;99.90;;;;;;4751826;30;20105;-74
2023/01/24 04:32:57;;;;;;;11.85;7.07;;;3.10;99.90;;;;;;4751151;30;20406;-74
2023/01/24 04:35:26;;;;;;;12.95;7.18;;;3.10;99.90;;;;;;4752083;30;20566;-74
2023/01/24 04:37:52;;;;;;;13.25;6.68;;;3.10;99.90;;;;;;4751978;30;20048;-74
2023/01/24 04:40:18;;;;;;;15.45;7.97;;;3.10;99.90;;;;;;4751697;30;20067;-74
2023/01/24 04:42:43;;;;;;;16.52;8.63;;;3.00;99.90;;;;;;4751925;30;20044;-74
2023/01/24 04:45:10;;;;;;;15.95;8.73;;;3.10;99.90;;;;;;4751641;30;20386;-74
2023/01/24 04:47:36;;;;;;;14.93;8.07;;;3.10;99.90;;;;;;4751649;30;20048;-74
2023/01/24 04:50:01;;;;;;;14.32;8.35;;;3.00;99.90;;;;;;4751699;30;20123;-74
2023/01/24 04:52:30;;;;;;;14.43;7.30;;;3.00;99.90;;;;;;4751861;30;20112;-74
2023/01/24 04:54:56;;;;;;;15.70;8.45;;;3.10;99.90;;;;;;4751706;30;20056;-74
2023/01/24 04:57:24;;;;;;;15.75;8.13;;;3.10;99.90;;;;;;4751874;30;20386;-74
2023/01/24 04:59:50;;;;;;;13.57;8.00;;;3.10;99.90;;;;;;4751544;30;20397;-74
2023/01/24 05:02:15;;;;;;;15.95;7.90;;;3.10;99.90;;;;;;4755215;30;20486;-74
2023/01/24 05:04:42;;;;;;;14.20;7.47;;;3.10;99.90;;;;;;4755145;30;20131;-74
2023/01/24 05:07:07;;;;;;;14.85;8.13;;;3.10;99.90;;;;;;4755413;30;20067;-74
2023/01/24 05:09:33;;;;;;;14.05;8.38;;;3.10;99.90;;;;;;4754953;30;20048;-74
2023/01/24 05:11:58;;;;;;;15.80;9.10;;;3.00;99.90;;;;;;4754998;30;20060;-74
2023/01/24 05:14:24;;;;;;;16.98;10.18;;;3.10;99.90;;;;;;4755233;30;20164;-74
2023/01/24 05:16:50;;;;;;;18.52;9.60;;;3.10;99.90;;;;;;4754980;30;20056;-74
2023/01/24 05:19:15;;;;;;;16.67;9.25;;;3.10;99.90;;;;;;4754973;30;20063;-74
2023/01/24 05:21:41;;;;;;;15.30;8.80;;;3.10;99.90;;;;;;4754908;30;20051;-74
2023/01/24 05:24:06;;;;;;;17.42;9.80;;;3.00;99.90;;;;;;4755031;30;20063;-74
2023/01/24 05:26:32;;;;;;;17.65;9.15;;;3.10;99.90;;;;;;4754532;30;20098;-74
2023/01/24 05:28:58;;;;;;;18.02;8.85;;;3.10;99.90;;;;;;4740026;30;20501;-74
2023/01/24 05:31:23;;;;;;;18.25;9.90;;;3.10;99.90;;;;;;4739804;30;20056;-74
2023/01/24 05:33:49;;;;;;;17.15;9.75;;;3.10;99.90;;;;;;4739969;30;20055;-73
2023/01/24 05:36:17;;;;;;;18.02;9.35;;;3.00;99.90;;;;;;4755976;30;20052;-74
2023/01/24 05:38:44;;;;;;;18.40;9.93;;;3.10;99.90;;;;;;4739814;30;20131;-74
2023/01/24 05:41:18;;;;;;;16.83;9.65;;;3.00;99.90;;;;;;4739787;30;20048;-74
2023/01/24 05:43:45;;;;;;;17.52;10.10;;;3.00;99.90;;;;;;4740045;30;20056;-74
2023/01/24 05:46:29;;;;;;;19.60;10.85;;;3.10;99.90;;;;;;4740052;30;20048;-74
2023/01/24 05:48:55;;;;;;;19.83;10.88;;;3.00;99.90;;;;;;4739726;30;20052;-74
2023/01/24 05:51:20;;;;;;;14.77;9.60;;;3.10;99.90;;;;;;4739612;30;20056;-74
2023/01/24 05:53:47;;;;;;;18.15;9.85;;;3.10;99.90;;;;;;4739671;30;20044;-74
2023/01/24 05:56:15;;;;;;;17.42;10.40;;;3.00;99.90;;;;;;4755492;30;20055;-74
2023/01/24 05:58:42;;;;;;;18.92;10.07;;;3.10;99.90;;;;;;4739613;30;20059;-74
2023/01/24 06:01:13;;;;;;;17.83;9.40;;;3.10;99.90;;;;;;4739556;30;20138;-74
2023/01/24 06:03:41;;;;;;;15.80;9.20;;;3.10;99.90;;;;;;4739609;30;20044;-74
2023/01/24 06:06:08;;;;;;;17.48;10.55;;;3.00;99.90;;;;;;4739403;30;20114;-74
2023/01/24 06:08:34;;;;;;;17.35;10.43;;;3.10;99.90;;;;;;4739291;30;20138;-74
2023/01/24 06:11:06;;;;;;;18.70;10.70;;;3.00;99.90;;;;;;4739448;30;20233;-74
2023/01/24 06:13:32;;;;;;;22.67;12.00;;;3.00;99.90;;;;;;4738337;30;20074;-74
2023/01/24 06:16:05;;;;;;;19.42;11.57;;;3.00;99.90;;;;;;4755552;30;20102;-74
2023/01/24 06:18:32;;;;;;;22.55;12.93;;;3.00;99.90;;;;;;4739503;30;20197;-74
2023/01/24 06:20:57;;;;;;;20.75;11.88;;;3.00;99.90;;;;;;4755038;30;20426;-74
2023/01/24 06:23:26;;;;;;;21.23;12.27;;;3.00;99.90;;;;;;4739144;30;20059;-74
2023/01/24 06:25:52;;;;;;;21.65;14.60;;;3.00;99.90;;;;;;4739175;30;20086;-74
2023/01/24 06:28:18;;;;;;;22.80;12.68;;;3.00;99.90;;;;;;4750063;30;20100;-74
2023/01/24 06:30:49;;;;;;;21.33;12.13;;;3.00;99.90;;;;;;4753584;30;20056;-74
2023/01/24 06:33:37;;;;;;;18.10;11.07;;;3.00;99.90;;;;;;4753926;30;20060;-74
2023/01/24 06:36:24;;;;;;;21.33;11.73;;;3.00;99.90;;;;;;4753973;30;20048;-74
2023/01/24 06:38:50;;;;;;;21.02;11.82;;;2.90;99.90;;;;;;4753923;30;20056;-74
2023/01/24 06:41:17;;;;;;;20.48;12.27;;;3.00;99.90;;;;;;4753415;30;20062;-74
2023/01/24 06:43:44;;;;;;;19.85;11.73;;;3.00;99.90;;;;;;4753752;30;20083;-74
2023/01/24 06:46:10;;;;;;;17.00;10.65;;;3.00;99.90;;;;;;4754898;30;20052;-74
2023/01/24 06:48:36;;;;;;;20.85;11.45;;;2.90;99.90;;;;;;4753452;30;20048;-74
2023/01/24 06:51:01;;;;;;;21.27;12.40;;;2.90;99.90;;;;;;4753726;30;20056;-74
2023/01/24 06:53:27;;;;;;;19.80;12.35;;;2.90;99.90;;;;;;4753474;30;20048;-74
2023/01/24 06:55:52;;;;;;;21.20;12.85;;;2.90;99.90;;;;;;4753314;30;20056;-74
2023/01/24 06:58:18;;;;;;;20.27;11.35;;;2.90;99.90;;;;;;4753391;30;20099;-74
2023/01/24 07:00:44;;;;;;;19.73;12.27;;;2.90;99.90;;;;;;4753253;30;20558;-74
2023/01/24 07:03:09;;;;;;;19.10;11.57;;;2.90;99.90;;;;;;4753478;30;20055;-74
2023/01/24 07:05:37;;;;;;;20.77;12.38;;;2.90;99.90;;;;;;4753251;30;20052;-74
2023/01/24 07:08:03;;;;;;;20.02;11.13;;;2.90;99.90;;;;;;4754097;30;20056;-74
2023/01/24 07:10:29;;;;;;;19.42;11.65;;;2.90;99.90;;;;;;4753211;30;20569;-74
2023/01/24 07:12:55;;;;;;;21.60;12.20;;;2.90;99.90;;;;;;4753012;30;20045;-74
2023/01/24 07:15:21;;;;;;;19.25;11.57;;;2.90;99.90;;;;;;4753008;30;20064;-74
2023/01/24 07:17:47;;;;;;;21.92;11.82;;;2.90;99.90;;;;;;4753057;30;20186;-74
2023/01/24 07:20:13;;;;;;;22.15;12.13;;;2.90;99.90;;;;;;4753238;30;20055;-74
2023/01/24 07:22:41;;;;;;;24.10;12.10;;;2.90;99.90;;;;;;4752740;30;20056;-74
2023/01/24 07:25:20;;;;;;;20.17;11.82;;;2.90;99.90;;;;;;4752765;30;20055;-74
2023/01/24 07:27:46;;;;;;;23.45;12.02;;;2.90;99.90;;;;;;4752511;30;20082;-74
2023/01/24 07:30:12;;;;;;;20.00;12.02;;;2.80;99.90;;;;;;4753054;30;20121;-74
2023/01/24 07:32:39;;;;;;;23.88;13.02;;;2.80;99.90;;;;;;4754032;30;20059;-74
2023/01/24 07:35:05;;;;;;;22.45;13.30;;;2.90;99.90;;;;;;4752430;30;20056;-74
2023/01/24 07:37:31;;;;;;;24.90;14.20;;;2.80;99.90;;;;;;4752427;30;20135;-74
2023/01/24 07:39:57;;;;;;;25.20;12.75;;;2.80;99.90;;;;;;4752397;30;20135;-74
2023/01/24 07:42:26;;;;;;;23.60;13.38;;;2.80;99.90;;;;;;4752629;30;20059;-74
2023/01/24 07:44:53;;;;;;;27.10;14.65;;;2.90;99.90;;;;;;4752494;30;20052;-75
2023/01/24 07:47:19;;;;;;;24.25;13.77;;;2.80;99.90;;;;;;4751722;30;20094;-74
2023/01/24 07:49:48;;;;;;;25.42;13.52;;;2.90;99.90;;;;;;4750922;30;20700;-74
2023/01/24 07:52:14;;;;;;;29.80;15.45;;;2.80;99.90;;;;;;4751696;30;20100;-74
2023/01/24 07:54:39;;;;;;;27.35;14.20;;;2.80;99.90;;;;;;4752339;30;20056;-74
2023/01/24 07:57:07;;;;;;;23.98;13.57;;;2.90;99.90;;;;;;4752157;30;20052;-74
2023/01/24 07:59:36;;;;;;;28.95;14.02;;;2.80;99.90;;;;;;4752037;30;20109;-74
2023/01/24 08:02:02;;;;;;;29.25;15.77;;;2.80;99.90;;;;;;4753186;30;20413;-74
2023/01/24 08:04:27;;;;;;;28.48;15.13;;;2.90;99.90;;;;;;4751992;30;20485;-74
2023/01/24 08:09:37;;;;;;;26.67;15.23;;;2.90;99.90;;;;;;4751935;30;20056;-74
2023/01/24 08:12:03;;;;;;;29.73;14.80;;;2.80;99.90;;;;;;4752123;30;20060;-74
2023/01/24 08:14:28;;;;;;;29.45;15.23;;;2.80;99.90;;;;;;4752066;30;20489;-74
2023/01/24 08:16:54;;;;;;;29.55;15.07;;;2.80;99.90;;;;;;4753103;30;20051;-74
2023/01/24 08:19:20;;;;;;;31.77;17.33;;;2.80;99.90;;;;;;4751993;30;20063;-74
2023/01/24 08:21:45;;;;;;;28.48;14.95;;;2.80;99.90;;;;;;4752024;30;20048;-74
2023/01/24 08:24:11;;;;;;;28.63;14.75;;;2.80;99.90;;;;;;4751861;30;20187;-75
2023/01/24 08:26:36;;;;;;;30.73;17.48;;;2.80;99.90;;;;;;4751563;30;20071;-77
2023/01/24 08:29:02;;;;;;;31.48;16.27;;;2.90;99.90;;;;;;4736916;30;20060;-74
2023/01/24 08:31:28;;;;;;;31.98;17.08;;;2.80;99.90;;;;;;4737142;30;20044;-74
2023/01/24 08:33:53;;;;;;;33.40;17.77;;;2.90;99.90;;;;;;4736262;30;20051;-74
2023/01/24 08:36:20;;;;;;;33.85;18.13;;;2.80;99.90;;;;;;4728755;30;20060;-73
2023/01/24 08:38:45;;;;;;;36.63;19.02;;;2.90;99.90;;;;;;4735083;30;20053;-73
2023/01/24 08:41:11;;;;;;;33.47;17.05;;;2.90;99.90;;;;;;4719205;30;20079;-74
2023/01/24 08:43:37;;;;;;;34.53;17.05;;;2.90;99.90;;;;;;4719365;30;20048;-74
2023/01/24 08:46:03;;;;;;;33.38;17.23;;;2.90;99.90;;;;;;4719168;30;20067;-74
2023/01/24 08:48:30;;;;;;;31.38;16.17;;;2.80;99.90;;;;;;4719160;30;20536;-74
2023/01/24 08:50:55;;;;;;;31.20;15.85;;;2.80;99.90;;;;;;4719016;30;20053;-74
2023/01/24 08:53:21;;;;;;;32.92;17.05;;;2.90;99.90;;;;;;4719388;30;20051;-73
2023/01/24 08:55:50;;;;;;;36.22;17.00;;;2.90;99.90;;;;;;4721613;30;20060;-74
2023/01/24 08:58:16;;;;;;;30.73;14.60;;;2.80;99.90;;;;;;4736643;30;20051;-73
2023/01/24 09:00:42;;;;;;;27.23;14.73;;;2.90;99.90;;;;;;4752633;30;20052;-73
2023/01/24 09:03:17;;;;;;;30.88;16.48;;;2.90;99.90;;;;;;4736520;30;20455;-74
2023/01/24 09:05:42;;;;;;;32.25;16.25;;;2.80;99.90;;;;;;4736712;30;20114;-74
2023/01/24 09:08:08;;;;;;;32.58;17.35;;;2.80;99.90;;;;;;4736456;30;20052;-74
2023/01/24 09:10:35;;;;;;;36.53;16.67;;;2.80;99.90;;;;;;4736643;30;20060;-73
2023/01/24 09:13:01;;;;;;;31.73;16.42;;;2.80;99.90;;;;;;4736511;30;20116;-74
2023/01/24 09:15:27;;;;;;;31.35;15.40;;;2.80;99.90;;;;;;4736637;30;20378;-74
2023/01/24 09:17:53;;;;;;;35.88;20.90;;;2.80;99.90;;;;;;4736401;30;20539;-74
2023/01/24 09:20:18;;;;;;;32.10;16.55;;;2.90;99.90;;;;;;4736641;30;20060;-73
2023/01/24 09:22:44;;;;;;;29.92;16.00;;;2.80;99.90;;;;;;4736350;30;20059;-73
2023/01/24 09:25:10;;;;;;;31.75;16.42;;;2.90;99.90;;;;;;4736346;30;20049;-73
2023/01/24 09:27:37;;;;;;;29.08;14.95;;;2.80;99.90;;;;;;4742599;30;20068;-73
2023/01/24 09:30:04;;;;;;;35.00;16.60;;;2.80;99.90;;;;;;4750946;30;20052;-73
2023/01/24 09:32:30;;;;;;;31.73;16.45;;;2.90;99.90;;;;;;4751183;30;20052;-74
2023/01/24 09:34:56;;;;;;;32.28;16.48;;;2.80;99.90;;;;;;4750961;30;20101;-73
2023/01/24 09:37:22;;;;;;;33.72;17.60;;;2.80;99.90;;;;;;4751158;30;20059;-73
2023/01/24 09:39:48;;;;;;;33.65;18.33;;;2.80;99.90;;;;;;4750979;30;20076;-73
2023/01/24 09:42:15;;;;;;;31.40;16.05;;;2.90;99.90;;;;;;4750876;30;20568;-73
2023/01/24 09:45:06;;;;;;;30.83;16.65;;;2.80;99.90;;;;;;4751150;30;20040;-74
2023/01/24 09:47:51;;;;;;;28.85;15.05;;;2.80;99.90;;;;;;4753228;30;20100;-73
2023/01/24 09:50:28;;;;;;;31.65;17.27;;;2.90;99.90;;;;;;4754299;30;20409;-73
2023/01/24 09:52:57;;;;;;;32.75;16.92;;;2.90;99.90;;;;;;4755295;30;20056;-73
2023/01/24 09:55:32;;;;;;;29.90;15.77;;;2.80;99.90;;;;;;4754287;30;20135;-73
2023/01/24 09:58:18;;;;;;;29.23;15.18;;;2.80;99.90;;;;;;4754250;30;20111;-73
2023/01/24 10:00:44;;;;;;;30.60;16.08;;;2.90;99.90;;;;;;4753837;30;20079;-73
2023/01/24 10:03:24;;;;;;;33.28;17.25;;;2.90;99.90;;;;;;4753843;30;20052;-73
2023/01/24 10:05:55;;;;;;;30.20;15.57;;;2.90;99.90;;;;;;4753849;30;20062;-74
2023/01/24 10:09:03;;;;;;;26.45;14.20;;;2.90;99.90;;;;;;4753729;30;20524;-74
2023/01/24 10:11:46;;;;;;;27.75;14.13;;;2.90;99.90;;;;;;4750188;30;20147;-74
2023/01/24 10:14:33;;;;;;;24.85;12.60;;;2.80;99.90;;;;;;4753932;30;20139;-74
2023/01/24 10:17:05;;;;;;;25.55;14.82;;;2.80;99.90;;;;;;4753737;30;20105;-74
2023/01/24 10:19:52;;;;;;;27.90;14.20;;;2.80;99.90;;;;;;4753567;30;20063;-73
2023/01/24 10:22:42;;;;;;;24.60;12.93;;;2.80;99.90;;;;;;4753628;30;20140;-74
2023/01/24 10:25:18;;;;;;;23.45;12.68;;;2.80;99.90;;;;;;4753779;30;20056;-74
2023/01/24 10:28:01;;;;;;;;;;;;;;;;;;;;;
2023/01/24 10:30:38;;;;;;;22.52;12.75;;;2.80;99.90;;;;;;4749671;30;20064;-73
2023/01/24 10:33:14;;;;;;;21.05;11.65;;;2.80;99.90;;;;;;4754756;30;20095;-74
2023/01/24 10:35:53;;;;;;;21.08;12.05;;;2.90;99.90;;;;;;4753530;30;20464;-74
2023/01/24 10:38:19;;;;;;;22.08;12.40;;;2.80;99.90;;;;;;4753278;30;20063;-74
2023/01/24 10:40:54;;;;;;;24.60;13.10;;;2.90;99.90;;;;;;4753155;30;20135;-74
2023/01/24 10:43:24;;;;;;;24.35;12.88;;;2.90;99.90;;;;;;4753453;30;20421;-74
2023/01/24 10:46:14;;;;;;;24.42;14.05;;;2.90;99.90;;;;;;4753213;30;20067;-74
2023/01/24 10:48:47;;;;;;;26.92;13.85;;;2.90;99.90;;;;;;4753181;30;20060;-74
2023/01/24 10:51:25;;;;;;;22.67;12.30;;;3.00;99.90;;;;;;4752869;30;20052;-73
2023/01/24 10:53:54;;;;;;;24.50;13.60;;;2.90;99.90;;;;;;4753372;30;20153;-74
2023/01/24 10:56:21;;;;;;;22.95;13.15;;;2.90;99.90;;;;;;4753038;30;20060;-74
2023/01/24 10:58:59;;;;;;;26.63;15.38;;;2.90;99.90;;;;;;4752455;30;20048;-74
2023/01/24 11:01:58;;;;;;;25.77;14.15;;;2.90;99.90;;;;;;4753196;30;20052;-74
2023/01/24 11:04:29;;;;;;;23.17;11.85;;;2.90;99.90;;;;;;4751597;30;20155;-74
2023/01/24 11:06:55;;;;;;;23.33;12.95;;;2.90;99.90;;;;;;4752675;30;20110;-73
2023/01/24 11:09:27;;;;;;;24.27;13.98;;;2.90;99.90;;;;;;4752666;30;20064;-73
2023/01/24 11:11:55;;;;;;;23.20;12.30;;;3.00;99.90;;;;;;4752947;30;20493;-73
2023/01/24 11:14:37;;;;;;;22.38;11.18;;;3.00;99.90;;;;;;4752776;30;20064;-73
2023/01/24 11:17:26;;;;;;;22.38;11.55;;;2.90;99.90;;;;;;4752987;30;20048;-73
2023/01/24 11:20:04;;;;;;;20.35;12.18;;;3.00;99.90;;;;;;4752374;30;20056;-73
2023/01/24 11:22:34;;;;;;;19.58;11.05;;;2.90;99.90;;;;;;4752364;30;20087;-73
2023/01/24 11:25:03;;;;;;;24.42;12.13;;;2.90;99.90;;;;;;4752609;30;20059;-73
2023/01/24 11:27:31;;;;;;;23.92;12.20;;;2.90;99.90;;;;;;4752288;30;20095;-74
2023/01/24 11:30:17;;;;;;;23.13;12.63;;;2.90;99.90;;;;;;4752339;30;20509;-74
2023/01/24 11:32:56;;;;;;;21.80;11.93;;;2.90;99.90;;;;;;4752439;30;20106;-74
2023/01/24 11:35:33;;;;;;;23.25;11.73;;;3.00;99.90;;;;;;4752266;30;20508;-73
2023/01/24 11:38:15;;;;;;;21.73;10.90;;;2.90;99.90;;;;;;4752652;30;20056;-75
2023/01/24 11:40:57;;;;;;;19.33;11.25;;;2.90;99.90;;;;;;4752147;30;20138;-74
2023/01/24 11:43:43;;;;;;;20.25;11.43;;;2.90;99.90;;;;;;4752475;30;20377;-74
2023/01/24 11:46:32;;;;;;;20.25;11.60;;;3.00;99.90;;;;;;4752450;30;20056;-74
2023/01/24 11:49:26;;;;;;;18.38;9.85;;;3.00;99.90;;;;;;4752091;30;20087;-74
2023/01/24 11:52:13;;;;;;;22.00;11.52;;;2.90;99.90;;;;;;4752033;30;20109;-74
2023/01/24 11:55:04;;;;;;;22.67;11.65;;;2.90;99.90;;;;;;4752274;30;20067;-74
2023/01/24 11:58:09;;;;;;;20.00;11.15;;;2.90;99.90;;;;;;4751862;30;20064;-73
2023/01/24 12:00:37;;;;;;;19.70;10.52;;;2.90;99.90;;;;;;4736723;30;20509;-74
2023/01/24 12:03:27;;;;;;;24.23;12.55;;;2.90;99.90;;;;;;4751854;30;20048;-74
2023/01/24 12:06:22;;;;;;;20.13;11.40;;;2.90;99.90;;;;;;4751814;30;20483;-74
2023/01/24 12:09:13;;;;;;;20.90;10.82;;;2.90;99.90;;;;;;4751657;30;20068;-74
2023/01/24 12:11:47;;;;;;;20.95;10.88;;;3.00;99.90;;;;;;4751459;30;20040;-74
2023/01/24 12:14:12;;;;;;;19.55;11.60;;;3.00;99.90;;;;;;4751668;30;20080;-74
2023/01/24 12:16:56;;;;;;;24.50;12.13;;;2.90;99.90;;;;;;4751669;30;20100;-74
2023/01/24 12:19:39;;;;;;;18.98;10.65;;;3.00;99.90;;;;;;4751836;30;20055;-74
2023/01/24 12:22:16;;;;;;;19.33;10.07;;;3.00;99.90;;;;;;4751901;30;20413;-75
2023/01/24 12:24:46;;;;;;;20.27;11.38;;;3.00;99.90;;;;;;4751718;30;20099;-74
2023/01/24 12:27:18;;;;;;;17.75;10.30;;;3.00;99.90;;;;;;4751426;30;20579;-73
2023/01/24 12:29:50;;;;;;;17.88;10.18;;;3.10;99.90;;;;;;4751387;30;20498;-74
2023/01/24 12:32:16;;;;;;;21.90;12.20;;;3.00;99.90;;;;;;4751463;30;20051;-74
2023/01/24 12:35:19;;;;;;;17.85;9.45;;;3.00;99.90;;;;;;4751666;30;20044;-74
2023/01/24 12:37:59;;;;;;;19.95;10.40;;;3.10;99.90;;;;;;4751462;30;20190;-74
2023/01/24 12:40:54;;;;;;;20.60;9.82;;;3.10;99.90;;;;;;4751679;30;20055;-74
2023/01/24 12:43:48;;;;;;;20.67;11.00;;;3.10;99.90;;;;;;4751637;30;20060;-74
2023/01/24 12:46:16;;;;;;;;;;;3.20;99.90;;;;;;4752057;30;20056;-74
2023/01/24 12:48:56;;;;;;;19.15;10.30;;;3.20;99.90;;;;;;4751283;30;19932;-74
2023/01/24 12:51:46;;;;;;;20.63;10.73;;;3.10;99.90;;;;;;4751195;30;20044;-74
2023/01/24 12:54:18;;;;;;;18.02;10.85;;;3.10;99.90;;;;;;4751606;30;20056;-74
2023/01/24 12:56:53;;;;;;;19.27;10.55;;;3.20;99.90;;;;;;4751612;30;20047;-73
2023/01/24 12:59:28;;;;;;;27.70;12.82;;;3.20;99.90;;;;;;4751264;30;20054;-73
2023/01/24 13:03:04;;;;;;;39.78;17.67;;;3.20;99.90;;;;;;4751591;30;20052;-73
2023/01/24 13:06:15;;;;;;;24.63;11.27;;;3.20;99.90;;;;;;4728803;30;20512;-73
2023/01/24 13:09:11;;;;;;;25.55;12.75;;;3.20;99.90;;;;;;4660397;30;20058;-73
2023/01/24 13:11:45;;;;;;;21.13;11.23;;;3.10;99.90;;;;;;4666796;30;20089;-73
2023/01/24 13:14:19;;;;;;;;;;;3.20;99.90;;;;;;4727527;30;20075;-74
2023/01/24 13:16:58;;;;;;;30.27;15.00;;;3.10;99.90;;;;;;4751103;30;19964;-74
2023/01/24 13:19:46;;;;;;;23.42;12.93;;;3.10;99.90;;;;;;4751366;30;20519;-74
2023/01/24 13:22:50;;;;;;;23.73;11.70;;;3.00;99.90;;;;;;4753000;30;20134;-74
2023/01/24 13:25:45;;;;;;;21.95;11.73;;;3.10;99.90;;;;;;4754194;30;20570;-74
2023/01/24 13:28:50;;;;;;;22.30;11.98;;;3.00;99.90;;;;;;4754303;30;20064;-74
2023/01/24 13:31:29;;;;;;;21.13;11.60;;;3.00;99.90;;;;;;4754341;30;20063;-74
2023/01/24 13:34:02;;;;;;;22.30;10.98;;;3.10;99.90;;;;;;4754443;30;20131;-74
2023/01/24 13:36:37;;;;;;;21.67;11.18;;;3.10;99.90;;;;;;4754623;30;20086;-75
2023/01/24 13:39:05;;;;;;;22.27;11.75;;;3.00;99.90;;;;;;4754357;30;20105;-75
2023/01/24 13:41:30;;;;;;;23.33;12.75;;;3.10;99.90;;;;;;4754179;30;20056;-75
2023/01/24 13:43:59;;;;;;;21.15;11.70;;;3.00;99.90;;;;;;4736603;30;20053;-74